Time;durP1;ratioP1;P1;durP2;ratioP2;P2;SDS_P1;SDS_P2;PMS_P1;PMS_P2;Temp;Humidity;BMP_temperature;BMP_pressure;BME280_temperature;BME280_humidity;BME280_pressure;Samples;Min_cycle;Max_cycle;Signal;HPM_P1;HPM_P2
2021/03/12 00:00:32;;;;;;;;;;;18.50;49.80;;;;;;4898751;29;19927;-92
2021/03/12 00:02:58;;;;;;;;;;;18.40;49.80;;;;;;4897114;29;19970;-91
2021/03/12 00:05:25;;;;;;;;;;;18.40;49.80;;;;;;4918051;29;19981;-92
2021/03/12 00:07:54;;;;;;;;;;;18.40;49.80;;;;;;4904087;29;19931;-91
2021/03/12 00:10:23;;;;;;;;;;;18.40;49.90;;;;;;4898950;29;19927;-91
2021/03/12 00:12:49;;;;;;;;;;;18.40;50.50;;;;;;4903632;29;20101;-92
2021/03/12 00:15:18;;;;;;;;;;;18.40;49.90;;;;;;4898285;29;19927;-91
2021/03/12 00:17:44;;;;;;;;;;;18.40;49.90;;;;;;4903512;29;19938;-91
2021/03/12 00:20:12;;;;;;;;;;;18.40;49.90;;;;;;4884628;29;19930;-90
2021/03/12 00:22:39;;;;;;;;;;;18.30;49.80;;;;;;4921810;29;19933;-93
2021/03/12 00:25:09;;;;;;;;;;;18.40;49.90;;;;;;4916361;29;19946;-91
2021/03/12 00:27:35;;;;;;;;;;;18.30;49.90;;;;;;4916149;29;19939;-92
2021/03/12 00:30:06;;;;;;;;;;;18.30;49.90;;;;;;4898893;29;19926;-90
2021/03/12 00:32:32;;;;;;;;;;;18.30;49.80;;;;;;4915801;29;19975;-90
2021/03/12 00:34:59;;;;;;;;;;;18.30;49.90;;;;;;4898800;29;20295;-92
2021/03/12 00:37:25;;;;;;;;;;;18.30;49.80;;;;;;4908202;29;20604;-94
2021/03/12 00:40:06;;;;;;;;;;;18.30;49.80;;;;;;4900577;29;20599;-95
2021/03/12 00:42:33;;;;;;;;;;;18.30;49.90;;;;;;4905201;29;19927;-93
2021/03/12 00:44:59;;;;;;;;;;;18.30;49.90;;;;;;4882172;29;19927;-94
2021/03/12 00:47:25;;;;;;;;;;;18.30;49.90;;;;;;4904627;29;19935;-92
2021/03/12 00:49:52;;;;;;;;;;;18.30;49.90;;;;;;4885245;29;19934;-89
2021/03/12 00:52:18;;;;;;;;;;;18.30;50.00;;;;;;4886994;29;19927;-93
2021/03/12 00:54:45;;;;;;;;;;;18.30;49.90;;;;;;4916773;29;20027;-93
2021/03/12 00:57:12;;;;;;;;;;;18.20;50.50;;;;;;4913892;29;19947;-91
2021/03/12 00:59:39;;;;;;;;;;;18.30;50.00;;;;;;4915917;29;20466;-92
2021/03/12 01:02:05;;;;;;;;;;;18.20;49.90;;;;;;4895302;29;19931;-93
2021/03/12 01:04:31;;;;;;;;;;;18.20;49.90;;;;;;4900201;29;19951;-92
2021/03/12 01:06:58;;;;;;;;;;;18.20;50.00;;;;;;4897539;29;19931;-92
2021/03/12 01:09:24;;;;;;;;;;;18.20;49.90;;;;;;4905049;29;20419;-92
2021/03/12 01:11:50;;;;;;;;;;;18.20;49.90;;;;;;4900176;29;19927;-91
2021/03/12 01:14:17;;;;;;;;;;;18.20;49.90;;;;;;4900489;29;19955;-91
2021/03/12 01:16:43;;;;;;;;;;;18.20;49.90;;;;;;4897687;29;19927;-91
2021/03/12 01:19:09;;;;;;;;;;;18.20;49.90;;;;;;4915043;29;19933;-92
2021/03/12 01:21:36;;;;;;;;;;;18.20;50.40;;;;;;4881527;29;19990;-92
2021/03/12 01:24:02;;;;;;;;;;;18.20;49.80;;;;;;4900691;29;19927;-91
2021/03/12 01:26:29;;;;;;;;;;;18.10;49.80;;;;;;4897704;29;19942;-93
2021/03/12 01:29:00;;;;;;;;;;;18.10;49.80;;;;;;4902345;29;20014;-93
2021/03/12 01:31:26;;;;;;;;;;;18.20;49.80;;;;;;4912227;29;19944;-92
2021/03/12 01:33:53;;;;;;;;;;;18.10;49.80;;;;;;4900289;29;19935;-93
2021/03/12 01:36:19;;;;;;;;;;;18.10;49.90;;;;;;4900630;29;19931;-91
2021/03/12 01:38:46;;;;;;;;;;;18.10;49.80;;;;;;4896741;29;19927;-93
2021/03/12 01:41:12;;;;;;;;;;;18.10;49.80;;;;;;4915466;29;20219;-95
2021/03/12 01:43:38;;;;;;;;;;;18.10;49.80;;;;;;4913374;29;19927;-94
2021/03/12 01:46:05;;;;;;;;;;;18.10;49.80;;;;;;4916562;29;19966;-93
2021/03/12 01:48:31;;;;;;;;;;;18.10;49.90;;;;;;4897558;29;20658;-93
2021/03/12 01:50:59;;;;;;;;;;;18.10;49.90;;;;;;4902041;29;19938;-92
2021/03/12 01:53:26;;;;;;;;;;;18.10;49.90;;;;;;4898183;29;19927;-94
2021/03/12 01:55:53;;;;;;;;;;;18.10;49.90;;;;;;4902041;29;20464;-93
2021/03/12 01:58:20;;;;;;;;;;;18.10;49.90;;;;;;4899016;29;19956;-93
2021/03/12 02:00:47;;;;;;;;;;;18.10;49.80;;;;;;4916171;29;19927;-94
2021/03/12 02:03:16;;;;;;;;;;;18.00;49.70;;;;;;4881168;29;19942;-92
2021/03/12 02:05:42;;;;;;;;;;;18.00;49.80;;;;;;4887685;29;20018;-94
2021/03/12 02:08:08;;;;;;;;;;;18.00;49.70;;;;;;4911665;29;19935;-93
2021/03/12 02:10:35;;;;;;;;;;;18.00;49.80;;;;;;4901537;29;20015;-94
2021/03/12 02:13:27;;;;;;;;;;;18.00;49.70;;;;;;4883999;29;20267;-93
2021/03/12 02:15:54;;;;;;;;;;;18.00;49.80;;;;;;4891756;29;21407;-94
2021/03/12 02:18:38;;;;;;;;;;;18.00;49.70;;;;;;4895783;29;19927;-91
2021/03/12 02:21:19;;;;;;;;;;;18.00;49.70;;;;;;4912381;29;20514;-92
2021/03/12 02:23:48;;;;;;;;;;;18.00;49.70;;;;;;4897468;29;19931;-94
2021/03/12 02:26:23;;;;;;;;;;;18.00;49.80;;;;;;4913228;29;21256;-94
2021/03/12 02:28:57;;;;;;;;;;;18.00;49.80;;;;;;4891763;29;20293;-94
2021/03/12 02:31:23;;;;;;;;;;;18.00;49.80;;;;;;4913483;29;20446;-93
2021/03/12 02:33:51;;;;;;;;;;;18.00;49.70;;;;;;4897376;29;19942;-93
2021/03/12 02:36:20;;;;;;;;;;;17.90;49.70;;;;;;4912524;29;20002;-91
2021/03/12 02:38:47;;;;;;;;;;;18.00;49.80;;;;;;4901773;29;19945;-92
2021/03/12 02:41:14;;;;;;;;;;;18.00;49.80;;;;;;4911120;29;19915;-94
2021/03/12 02:43:40;;;;;;;;;;;18.00;49.80;;;;;;4901278;29;20376;-94
2021/03/12 02:46:07;;;;;;;;;;;18.00;49.80;;;;;;4890115;29;19987;-94
2021/03/12 02:48:34;;;;;;;;;;;17.90;49.70;;;;;;4903657;29;19927;-94
2021/03/12 02:51:03;;;;;;;;;;;17.90;49.70;;;;;;4897593;29;19927;-95
2021/03/12 02:53:29;;;;;;;;;;;18.00;49.80;;;;;;4901641;29;19927;-93
2021/03/12 02:55:56;;;;;;;;;;;17.90;49.80;;;;;;4895335;29;19986;-92
2021/03/12 02:58:24;;;;;;;;;;;17.90;50.10;;;;;;4903640;29;19966;-93
2021/03/12 03:00:51;;;;;;;;;;;17.90;49.80;;;;;;4896740;29;19999;-91
2021/03/12 03:03:18;;;;;;;;;;;17.90;49.80;;;;;;4901066;29;19927;-92
2021/03/12 03:05:45;;;;;;;;;;;17.90;49.80;;;;;;4912266;29;19927;-93
2021/03/12 03:08:11;;;;;;;;;;;17.90;49.80;;;;;;4913656;29;20428;-93
2021/03/12 03:10:39;;;;;;;;;;;17.90;49.80;;;;;;4894627;29;20402;-91
2021/03/12 03:13:06;;;;;;;;;;;17.90;49.80;;;;;;4918848;28;19931;-93
2021/03/12 03:15:32;;;;;;;;;;;17.90;49.80;;;;;;4904549;29;19967;-94
2021/03/12 03:18:02;;;;;;;;;;;17.90;49.90;;;;;;4889646;29;19927;-95
2021/03/12 03:20:29;;;;;;;;;;;17.90;49.80;;;;;;4915914;29;20351;-94
2021/03/12 03:22:55;;;;;;;;;;;17.90;49.80;;;;;;4898810;29;20002;-94
2021/03/12 03:25:21;;;;;;;;;;;17.90;49.80;;;;;;4901288;29;19927;-95
2021/03/12 03:27:48;;;;;;;;;;;17.80;49.80;;;;;;4925640;29;20676;-96
2021/03/12 03:30:15;;;;;;;;;;;17.80;49.80;;;;;;4906125;29;19958;-96
2021/03/12 03:32:41;;;;;;;;;;;17.90;49.90;;;;;;4898277;29;20376;-91
2021/03/12 03:35:09;;;;;;;;;;;17.90;49.90;;;;;;4901254;29;19967;-93
2021/03/12 03:37:35;;;;;;;;;;;17.80;49.90;;;;;;4897418;29;19966;-92
2021/03/12 03:40:02;;;;;;;;;;;17.80;49.90;;;;;;4903755;29;19933;-91
2021/03/12 03:42:29;;;;;;;;;;;17.80;49.90;;;;;;4900927;29;19934;-92
2021/03/12 03:44:56;;;;;;;;;;;17.80;49.80;;;;;;4902162;29;19915;-93
2021/03/12 03:47:25;;;;;;;;;;;17.80;49.90;;;;;;4917678;29;19951;-93
2021/03/12 03:49:52;;;;;;;;;;;17.80;49.90;;;;;;4886654;29;20448;-94
2021/03/12 03:52:22;;;;;;;;;;;17.80;49.90;;;;;;4900429;29;19927;-94
2021/03/12 03:54:50;;;;;;;;;;;17.80;49.90;;;;;;4916455;29;19969;-94
2021/03/12 03:57:18;;;;;;;;;;;17.80;49.90;;;;;;4917600;29;20392;-94
2021/03/12 03:59:45;;;;;;;;;;;17.80;49.90;;;;;;4899228;29;19931;-94
2021/03/12 04:02:13;;;;;;;;;;;17.80;50.00;;;;;;4900784;29;19938;-91
2021/03/12 04:04:42;;;;;;;;;;;17.80;49.90;;;;;;4899726;29;19935;-91
2021/03/12 04:07:09;;;;;;;;;;;17.80;49.90;;;;;;4886308;29;20424;-92
2021/03/12 04:09:36;;;;;;;;;;;17.70;49.90;;;;;;4896644;29;19926;-91
2021/03/12 04:12:03;;;;;;;;;;;17.80;50.00;;;;;;4905340;29;19939;-92
2021/03/12 04:14:41;;;;;;;;;;;17.70;50.00;;;;;;4900165;29;19927;-89
2021/03/12 04:17:09;;;;;;;;;;;17.70;50.00;;;;;;4898506;29;19934;-88
2021/03/12 04:19:37;;;;;;;;;;;17.70;50.00;;;;;;4909909;29;19942;-90
2021/03/12 04:22:03;;;;;;;;;;;17.80;50.00;;;;;;4898371;29;19934;-89
2021/03/12 04:24:32;;;;;;;;;;;17.70;50.00;;;;;;4897496;29;20014;-90
2021/03/12 04:26:59;;;;;;;;;;;17.70;50.00;;;;;;4901464;29;19982;-89
2021/03/12 04:29:26;;;;;;;;;;;17.70;49.90;;;;;;4897605;29;19927;-89
2021/03/12 04:31:52;;;;;;;;;;;17.70;50.00;;;;;;4915176;29;19970;-88
2021/03/12 04:34:19;;;;;;;;;;;17.70;50.00;;;;;;4898084;29;19915;-92
2021/03/12 04:36:45;;;;;;;;;;;17.70;50.00;;;;;;4905996;29;19950;-94
2021/03/12 04:39:12;;;;;;;;;;;17.70;50.00;;;;;;4900378;29;19927;-91
2021/03/12 04:41:42;;;;;;;;;;;17.70;49.90;;;;;;4899692;29;19931;-91
2021/03/12 04:44:09;;;;;;;;;;;17.70;50.00;;;;;;4899179;29;19934;-93
2021/03/12 04:46:36;;;;;;;;;;;17.70;50.00;;;;;;4902937;29;19927;-93
2021/03/12 04:49:05;;;;;;;;;;;17.60;49.90;;;;;;4898232;29;19942;-93
2021/03/12 04:51:31;;;;;;;;;;;17.60;50.50;;;;;;4915944;29;19927;-93
2021/03/12 04:53:58;;;;;;;;;;;17.60;50.00;;;;;;4902256;29;20338;-92
2021/03/12 04:56:24;;;;;;;;;;;17.70;50.60;;;;;;4898530;29;19923;-90
2021/03/12 04:58:55;;;;;;;;;;;17.60;50.50;;;;;;4903732;28;20372;-92
2021/03/12 05:01:22;;;;;;;;;;;17.60;50.00;;;;;;4885136;29;19927;-94
2021/03/12 05:03:48;;;;;;;;;;;17.60;49.90;;;;;;4902582;29;20079;-93
2021/03/12 05:06:15;;;;;;;;;;;17.60;50.00;;;;;;4897937;29;20296;-93
2021/03/12 05:08:43;;;;;;;;;;;17.60;49.90;;;;;;4906093;29;20018;-95
2021/03/12 05:11:10;;;;;;;;;;;17.60;49.90;;;;;;4890960;29;19927;-94
2021/03/12 05:13:36;;;;;;;;;;;17.60;50.00;;;;;;4905511;29;19927;-95
2021/03/12 05:16:03;;;;;;;;;;;17.60;50.00;;;;;;4897461;29;19927;-94
2021/03/12 05:18:41;;;;;;;;;;;17.60;49.90;;;;;;4903663;28;19930;-93
2021/03/12 05:21:07;;;;;;;;;;;17.60;49.90;;;;;;4915811;29;19946;-93
2021/03/12 05:23:34;;;;;;;;;;;17.60;50.50;;;;;;4902201;29;19928;-94
2021/03/12 05:26:00;;;;;;;;;;;17.60;49.90;;;;;;4916740;28;20017;-93
2021/03/12 05:28:37;;;;;;;;;;;17.60;49.90;;;;;;4900571;29;19942;-93
2021/03/12 05:31:03;;;;;;;;;;;17.60;49.90;;;;;;4897395;29;20029;-93
2021/03/12 05:33:30;;;;;;;;;;;17.60;49.90;;;;;;4901755;29;20341;-90
2021/03/12 05:35:56;;;;;;;;;;;17.50;49.80;;;;;;4896495;29;20061;-92
2021/03/12 05:38:23;;;;;;;;;;;17.50;49.90;;;;;;4900897;29;19983;-93
2021/03/12 05:40:50;;;;;;;;;;;17.60;50.20;;;;;;4899243;29;20414;-91
2021/03/12 05:43:18;;;;;;;;;;;17.50;49.80;;;;;;4902321;29;19959;-92
2021/03/12 05:45:51;;;;;;;;;;;17.50;49.90;;;;;;4905277;29;19999;-91
2021/03/12 05:48:18;;;;;;;;;;;17.50;49.80;;;;;;4898690;29;19934;-92
2021/03/12 05:50:45;;;;;;;;;;;17.50;49.80;;;;;;4903669;29;21038;-92
2021/03/12 05:53:12;;;;;;;;;;;17.50;49.80;;;;;;4899994;29;19970;-90
2021/03/12 05:55:38;;;;;;;;;;;17.50;49.80;;;;;;4898914;29;19934;-90
2021/03/12 05:58:06;;;;;;;;;;;17.50;49.90;;;;;;4883577;29;19950;-83
2021/03/12 06:00:32;;;;;;;;;;;17.50;49.90;;;;;;4913572;29;19927;-88
2021/03/12 06:02:58;;;;;;;;;;;17.50;49.90;;;;;;4904786;29;20014;-85
2021/03/12 06:05:25;;;;;;;;;;;17.50;49.90;;;;;;4910717;29;19941;-87
2021/03/12 06:08:04;;;;;;;;;;;17.50;49.90;;;;;;4889339;29;19975;-86
2021/03/12 06:10:30;;;;;;;;;;;17.50;49.90;;;;;;4903512;29;19966;-87
2021/03/12 06:12:57;;;;;;;;;;;17.50;49.90;;;;;;4907777;29;19927;-88
2021/03/12 06:15:32;;;;;;;;;;;17.50;50.00;;;;;;4899537;29;19927;-87
2021/03/12 06:17:59;;;;;;;;;;;17.50;50.00;;;;;;4886079;29;20034;-87
2021/03/12 06:20:25;;;;;;;;;;;17.50;50.00;;;;;;4900116;29;19935;-91
2021/03/12 06:22:51;;;;;;;;;;;17.40;50.00;;;;;;4892888;29;19927;-88
2021/03/12 06:25:22;;;;;;;;;;;17.50;50.00;;;;;;4910988;29;19930;-89
2021/03/12 06:27:52;;;;;;;;;;;17.50;50.00;;;;;;4909899;29;19997;-89
2021/03/12 06:30:20;;;;;;;;;;;17.50;50.00;;;;;;4924555;29;19927;-89
2021/03/12 06:32:51;;;;;;;;;;;17.50;49.90;;;;;;4912469;29;19942;-90
2021/03/12 06:35:18;;;;;;;;;;;17.50;49.90;;;;;;4890448;29;20003;-90
2021/03/12 06:37:45;;;;;;;;;;;17.50;50.00;;;;;;4894441;29;19934;-91
2021/03/12 06:40:18;;;;;;;;;;;17.40;49.90;;;;;;4892717;29;19935;-86
2021/03/12 06:43:03;;;;;;;;;;;17.40;49.90;;;;;;4894776;29;21237;-92
2021/03/12 06:45:31;;;;;;;;;;;17.50;49.90;;;;;;4891879;29;19928;-90
2021/03/12 06:48:17;;;;;;;;;;;17.50;49.90;;;;;;4900429;29;20321;-88
2021/03/12 06:50:43;;;;;;;;;;;17.40;49.80;;;;;;4905778;28;21244;-88
2021/03/12 06:53:18;;;;;;;;;;;17.40;50.40;;;;;;4927076;29;20027;-88
2021/03/12 06:55:45;;;;;;;;;;;17.40;49.80;;;;;;4920677;29;20400;-88
2021/03/12 06:58:11;;;;;;;;;;;17.40;49.70;;;;;;4893124;29;19931;-87
2021/03/12 07:00:37;;;;;;;;;;;17.40;49.70;;;;;;4902169;29;22456;-84
2021/03/12 07:03:24;;;;;;;;;;;17.50;50.20;;;;;;4908029;29;19927;-93
2021/03/12 07:06:00;;;;;;;;;;;17.50;50.10;;;;;;4892658;29;20278;-87
2021/03/12 07:08:29;;;;;;;;;;;17.60;50.20;;;;;;4896902;29;19938;-89
2021/03/12 07:10:55;;;;;;;;;;;17.60;50.30;;;;;;4905105;29;19942;-90
2021/03/12 07:13:22;;;;;;;;;;;17.70;50.10;;;;;;4899434;29;19990;-91
2021/03/12 07:15:51;;;;;;;;;;;17.80;50.00;;;;;;4894474;29;20419;-95
2021/03/12 07:18:18;;;;;;;;;;;17.80;49.80;;;;;;4897468;29;19927;-91
2021/03/12 07:20:50;;;;;;;;;;;17.90;50.10;;;;;;4901868;29;19927;-96
2021/03/12 07:23:26;;;;;;;;;;;17.90;49.80;;;;;;4975240;23;20242;-92
2021/03/12 07:25:53;;;;;;;;;;;17.90;49.80;;;;;;5021565;23;19936;-89
2021/03/12 07:28:22;;;;;;;;;;;18.00;49.60;;;;;;4906910;29;20010;-96
2021/03/12 07:30:51;;;;;;;;;;;18.00;49.60;;;;;;4878367;29;19931;-89
2021/03/12 07:33:21;;;;;;;;;;;18.00;49.40;;;;;;4909428;29;19927;-86
2021/03/12 07:35:49;;;;;;;;;;;18.00;49.20;;;;;;4917735;29;19957;-95
2021/03/12 07:38:16;;;;;;;;;;;18.00;49.20;;;;;;4883481;29;19973;-94
2021/03/12 07:40:44;;;;;;;;;;;18.00;49.10;;;;;;4899529;29;22422;-86
2021/03/12 07:43:12;;;;;;;;;;;18.00;49.00;;;;;;4896079;29;19927;-87
2021/03/12 07:45:40;;;;;;;;;;;17.90;49.00;;;;;;4901830;29;22967;-90
2021/03/12 07:48:11;;;;;;;;;;;18.00;49.00;;;;;;4893168;29;20503;-92
2021/03/12 07:50:38;;;;;;;;;;;18.00;49.30;;;;;;4898229;29;19927;-90
2021/03/12 07:53:07;;;;;;;;;;;18.00;49.30;;;;;;4894662;29;19942;-89
2021/03/12 07:55:36;;;;;;;;;;;18.00;49.30;;;;;;4911070;29;19928;-90
2021/03/12 07:58:06;;;;;;;;;;;18.10;49.50;;;;;;4888616;29;19926;-90
2021/03/12 08:00:51;;;;;;;;;;;18.20;51.50;;;;;;4916074;29;19931;-85
2021/03/12 08:03:28;;;;;;;;;;;18.30;52.50;;;;;;4892716;29;19927;-87
2021/03/12 08:05:54;;;;;;;;;;;18.50;53.00;;;;;;4900382;29;19927;-87
2021/03/12 08:08:37;;;;;;;;;;;18.60;53.10;;;;;;4908371;29;20434;-89
2021/03/12 08:11:24;;;;;;;;;;;18.70;53.10;;;;;;4895439;29;19932;-86
2021/03/12 08:14:12;;;;;;;;;;;18.80;52.70;;;;;;4894998;29;20491;-85
2021/03/12 08:16:58;;;;;;;;;;;18.90;52.30;;;;;;4895774;29;25063;-86
2021/03/12 08:19:34;;;;;;;;;;;18.90;52.10;;;;;;4892699;29;20546;-87
2021/03/12 08:22:20;;;;;;;;;;;19.00;51.70;;;;;;4907139;29;19931;-87
2021/03/12 08:24:52;;;;;;;;;;;19.10;51.50;;;;;;4897133;29;19935;-90
2021/03/12 08:27:39;;;;;;;;;;;19.20;51.10;;;;;;4901201;29;20010;-89
2021/03/12 08:30:12;;;;;;;;;;;19.20;51.30;;;;;;4914904;29;20304;-92
2021/03/12 08:32:39;;;;;;;;;;;19.30;50.90;;;;;;4903715;29;20554;-89
2021/03/12 08:35:31;;;;;;;;;;;19.30;50.90;;;;;;4911844;29;19939;-96
2021/03/12 08:37:59;;;;;;;;;;;19.40;50.60;;;;;;4887092;29;19927;-90
2021/03/12 08:40:42;;;;;;;;;;;19.40;50.30;;;;;;4896370;29;19961;-90
2021/03/12 08:43:25;;;;;;;;;;;19.50;50.20;;;;;;4935162;23;19966;-95
2021/03/12 08:45:54;;;;;;;;;;;19.60;49.90;;;;;;4931469;28;20435;-93
2021/03/12 08:48:27;;;;;;;;;;;19.60;49.80;;;;;;4929748;28;19919;-90
2021/03/12 08:50:55;;;;;;;;;;;19.60;49.70;;;;;;4926207;29;20905;-88
2021/03/12 08:53:22;;;;;;;;;;;19.70;49.90;;;;;;4914414;29;19926;-87
2021/03/12 08:55:50;;;;;;;;;;;19.70;49.60;;;;;;4925739;29;19962;-94
2021/03/12 08:58:20;;;;;;;;;;;19.80;49.70;;;;;;4930779;29;19974;-91
2021/03/12 09:00:50;;;;;;;;;;;19.80;49.20;;;;;;4917336;29;20134;-92
2021/03/12 09:03:34;;;;;;;;;;;19.80;49.10;;;;;;4929652;29;19927;-89
2021/03/12 09:06:05;;;;;;;;;;;19.90;48.80;;;;;;4910535;29;19934;-91
2021/03/12 09:08:32;;;;;;;;;;;19.90;48.90;;;;;;4928605;28;19977;-94
2021/03/12 09:10:59;;;;;;;;;;;20.00;48.50;;;;;;4918145;29;19931;-88
2021/03/12 09:13:29;;;;;;;;;;;20.00;48.60;;;;;;4929256;29;19977;-95
2021/03/12 09:15:56;;;;;;;;;;;20.10;48.40;;;;;;4900614;29;20005;-92
2021/03/12 09:18:45;;;;;;;;;;;20.00;48.50;;;;;;4933584;28;20360;-93
2021/03/12 09:21:17;;;;;;;;;;;20.10;48.50;;;;;;4929740;29;20018;-94
2021/03/12 09:23:48;;;;;;;;;;;20.10;48.30;;;;;;4912396;29;19931;-93
2021/03/12 09:26:16;;;;;;;;;;;20.20;48.00;;;;;;4914602;29;20311;-93
2021/03/12 09:28:46;;;;;;;;;;;20.20;48.00;;;;;;4914110;29;19922;-84
2021/03/12 09:31:13;;;;;;;;;;;20.20;48.10;;;;;;4926354;29;19927;-92
2021/03/12 09:33:42;;;;;;;;;;;20.10;46.30;;;;;;4932749;28;19935;-91
2021/03/12 09:36:23;;;;;;;;;;;20.00;46.50;;;;;;4924380;29;19945;-90
2021/03/12 09:38:50;;;;;;;;;;;19.90;47.40;;;;;;4925468;29;20382;-88
2021/03/12 09:41:18;;;;;;;;;;;19.80;49.10;;;;;;4900233;29;21620;-94
2021/03/12 09:43:47;;;;;;;;;;;19.80;50.00;;;;;;4917733;29;19938;-88
2021/03/12 09:46:15;;;;;;;;;;;19.80;49.80;;;;;;4912090;29;20057;-89
2021/03/12 09:48:56;;;;;;;;;;;20.00;50.00;;;;;;4913413;29;19931;-88
2021/03/12 09:51:24;;;;;;;;;;;20.10;49.70;;;;;;4915414;28;20343;-87
2021/03/12 09:53:51;;;;;;;;;;;20.10;49.90;;;;;;4925238;29;19927;-89
2021/03/12 09:56:23;;;;;;;;;;;20.20;49.80;;;;;;4891435;29;19942;-92
2021/03/12 09:58:50;;;;;;;;;;;20.20;49.20;;;;;;4922444;28;19983;-86
2021/03/12 10:01:19;;;;;;;;;;;20.30;49.30;;;;;;4924337;29;19930;-94
2021/03/12 10:03:48;;;;;;;;;;;20.30;49.40;;;;;;4921089;29;20493;-89
2021/03/12 10:06:15;;;;;;;;;;;20.40;49.30;;;;;;4911220;29;20395;-85
2021/03/12 10:09:20;;;;;;;;;;;20.40;49.00;;;;;;4920553;29;20310;-86
2021/03/12 10:11:52;;;;;;;;;;;20.40;49.00;;;;;;4832734;29;20488;-88
2021/03/12 10:14:35;;;;;;;;;;;20.40;49.00;;;;;;4868846;29;19931;-85
2021/03/12 10:17:26;;;;;;;;;;;;;;;;;;;;;
2021/03/12 10:19:58;;;;;;;;;;;20.50;49.00;;;;;;4925635;29;20807;-93
2021/03/12 10:22:34;;;;;;;;;;;20.50;48.90;;;;;;4917084;29;19931;-92
2021/03/12 10:25:06;;;;;;;;;;;20.60;48.50;;;;;;4927844;29;19982;-88
2021/03/12 10:27:37;;;;;;;;;;;20.60;48.60;;;;;;4922122;28;20018;-91
2021/03/12 10:30:09;;;;;;;;;;;20.70;48.50;;;;;;4925821;29;20467;-87
2021/03/12 10:32:39;;;;;;;;;;;20.70;48.50;;;;;;4913147;29;19942;-89
2021/03/12 10:35:16;;;;;;;;;;;20.70;48.80;;;;;;4920631;29;19970;-90
2021/03/12 10:37:45;;;;;;;;;;;20.70;48.30;;;;;;4919440;29;19927;-92
2021/03/12 10:40:11;;;;;;;;;;;20.80;48.30;;;;;;4928349;29;19955;-89
2021/03/12 10:42:40;;;;;;;;;;;20.80;48.40;;;;;;4909310;29;20014;-90
2021/03/12 10:45:10;;;;;;;;;;;20.80;48.10;;;;;;4901639;28;19935;-89
2021/03/12 10:47:54;;;;;;;;;;;20.80;48.30;;;;;;4925885;29;19989;-93
2021/03/12 10:50:49;;;;;;;;;;;20.80;48.20;;;;;;4912652;29;19950;-87
2021/03/12 10:53:16;;;;;;;;;;;20.90;48.30;;;;;;4905728;29;19934;-90
2021/03/12 10:55:45;;;;;;;;;;;20.90;48.50;;;;;;4931049;29;19946;-89
2021/03/12 10:58:25;;;;;;;;;;;20.90;48.30;;;;;;4916181;29;19934;-90
2021/03/12 11:01:24;;;;;;;;;;;20.90;48.20;;;;;;4913909;29;20014;-89
2021/03/12 11:03:54;;;;;;;;;;;20.90;48.10;;;;;;4917001;29;20141;-84
2021/03/12 11:06:21;;;;;;;;;;;20.50;48.30;;;;;;4924688;28;19965;-84
2021/03/12 11:08:48;;;;;;;;;;;20.30;49.20;;;;;;4923043;28;20013;-85
2021/03/12 11:11:17;;;;;;;;;;;20.20;49.60;;;;;;4927628;28;19927;-86
2021/03/12 11:13:44;;;;;;;;;;;20.10;49.90;;;;;;4917378;29;19926;-85
2021/03/12 11:16:11;;;;;;;;;;;20.00;50.30;;;;;;4908670;29;19936;-85
2021/03/12 11:18:38;;;;;;;;;;;19.90;50.00;;;;;;4921405;29;19983;-86
2021/03/12 11:21:06;;;;;;;;;;;19.90;50.60;;;;;;4920296;29;20304;-85
2021/03/12 11:23:32;;;;;;;;;;;19.80;50.30;;;;;;4919008;29;19927;-85
2021/03/12 11:25:58;;;;;;;;;;;19.80;50.70;;;;;;4920730;29;20287;-85
2021/03/12 11:28:25;;;;;;;;;;;19.70;51.00;;;;;;4927450;29;19958;-86
2021/03/12 11:30:52;;;;;;;;;;;19.70;51.10;;;;;;4923576;29;19915;-85
2021/03/12 11:33:19;;;;;;;;;;;19.60;51.10;;;;;;4911027;29;19927;-86
2021/03/12 11:35:45;;;;;;;;;;;19.60;51.30;;;;;;4920783;28;20022;-84
2021/03/12 11:38:11;;;;;;;;;;;19.50;51.50;;;;;;4927138;29;20311;-82
2021/03/12 11:40:38;;;;;;;;;;;19.50;51.60;;;;;;4922215;29;19969;-84
2021/03/12 11:43:06;;;;;;;;;;;19.40;51.30;;;;;;4921204;29;19979;-86
2021/03/12 11:45:33;;;;;;;;;;;19.50;51.50;;;;;;4910345;28;19935;-85
2021/03/12 11:47:59;;;;;;;;;;;19.50;51.90;;;;;;4913026;29;19971;-86
2021/03/12 11:50:32;;;;;;;;;;;19.50;52.30;;;;;;4914898;28;19926;-85
2021/03/12 11:52:59;;;;;;;;;;;19.40;52.20;;;;;;4911709;29;19954;-86
2021/03/12 11:55:25;;;;;;;;;;;19.30;52.10;;;;;;4918925;29;20484;-86
2021/03/12 11:57:51;;;;;;;;;;;19.30;52.10;;;;;;4921910;29;20643;-87
2021/03/12 12:00:17;;;;;;;;;;;19.30;52.20;;;;;;4932717;29;19930;-85
2021/03/12 12:02:45;;;;;;;;;;;19.30;52.30;;;;;;4920721;28;19927;-85
2021/03/12 12:05:12;;;;;;;;;;;19.20;52.10;;;;;;4928077;28;19933;-86
2021/03/12 12:07:40;;;;;;;;;;;19.20;52.10;;;;;;4923688;28;19966;-86
2021/03/12 12:10:13;;;;;;;;;;;19.20;52.10;;;;;;4930461;29;19966;-87
2021/03/12 12:12:45;;;;;;;;;;;19.10;52.20;;;;;;4920880;28;20793;-86
2021/03/12 12:15:16;;;;;;;;;;;19.10;52.00;;;;;;4928302;29;19950;-85
2021/03/12 12:17:43;;;;;;;;;;;19.10;52.10;;;;;;4925665;28;19931;-86
2021/03/12 12:20:10;;;;;;;;;;;19.00;52.10;;;;;;4926947;29;20042;-86
2021/03/12 12:22:36;;;;;;;;;;;19.00;52.10;;;;;;4924718;28;19946;-86
2021/03/12 12:25:03;;;;;;;;;;;19.00;52.00;;;;;;4926506;29;20218;-87
2021/03/12 12:27:30;;;;;;;;;;;19.00;52.20;;;;;;4925214;29;19927;-89
2021/03/12 12:29:57;;;;;;;;;;;19.00;52.30;;;;;;4947057;28;20017;-87
2021/03/12 12:32:23;;;;;;;;;;;18.90;52.20;;;;;;4915211;28;20037;-88
2021/03/12 12:34:49;;;;;;;;;;;18.90;52.20;;;;;;4909650;29;19927;-87
2021/03/12 12:37:16;;;;;;;;;;;18.90;52.20;;;;;;4941735;28;19915;-87
2021/03/12 12:39:42;;;;;;;;;;;18.90;53.20;;;;;;4923405;29;20364;-93
2021/03/12 12:42:09;;;;;;;;;;;18.90;52.70;;;;;;4930216;29;20503;-85
2021/03/12 12:44:35;;;;;;;;;;;18.90;52.60;;;;;;4921156;29;19930;-93
2021/03/12 12:47:02;;;;;;;;;;;18.80;52.90;;;;;;4936089;29;19927;-95
2021/03/12 12:49:35;;;;;;;;;;;18.80;54.10;;;;;;4929699;29;19942;-92
2021/03/12 12:52:03;;;;;;;;;;;18.80;53.70;;;;;;4934092;29;19942;-91
2021/03/12 12:54:29;;;;;;;;;;;18.90;54.00;;;;;;4925899;28;19927;-91
2021/03/12 12:56:56;;;;;;;;;;;18.90;53.70;;;;;;4948782;23;21176;-96
2021/03/12 12:59:24;;;;;;;;;;;19.00;53.90;;;;;;4891525;29;19923;-90
2021/03/12 13:01:51;;;;;;;;;;;19.00;53.70;;;;;;4908334;29;19970;-85
2021/03/12 13:04:17;;;;;;;;;;;19.10;53.60;;;;;;4906866;29;19986;-91
2021/03/12 13:06:43;;;;;;;;;;;19.00;53.30;;;;;;4910526;29;20034;-89
2021/03/12 13:09:10;;;;;;;;;;;19.10;53.30;;;;;;4891646;29;19927;-95
2021/03/12 13:11:44;;;;;;;;;;;19.10;53.50;;;;;;4917977;29;19934;-91
2021/03/12 13:14:11;;;;;;;;;;;19.10;53.50;;;;;;4912799;29;19935;-89
2021/03/12 13:16:38;;;;;;;;;;;19.20;53.20;;;;;;4917414;29;19987;-93
2021/03/12 13:19:09;;;;;;;;;;;19.20;53.40;;;;;;4913922;29;19951;-91
2021/03/12 13:21:42;;;;;;;;;;;19.20;53.20;;;;;;4918785;29;20434;-88
2021/03/12 13:24:12;;;;;;;;;;;19.20;53.10;;;;;;4901396;29;19943;-92
2021/03/12 13:26:42;;;;;;;;;;;19.20;52.70;;;;;;4919898;29;20411;-94
2021/03/12 13:29:14;;;;;;;;;;;19.30;52.80;;;;;;4914472;29;20343;-95
2021/03/12 13:31:43;;;;;;;;;;;19.30;52.80;;;;;;4921033;29;19935;-90
2021/03/12 13:34:13;;;;;;;;;;;19.30;52.90;;;;;;4918056;29;19951;-92
2021/03/12 13:36:40;;;;;;;;;;;19.30;52.80;;;;;;4904134;29;19974;-87
2021/03/12 13:39:07;;;;;;;;;;;19.30;52.50;;;;;;4911792;29;19935;-88
2021/03/12 13:41:34;;;;;;;;;;;19.30;52.60;;;;;;4908280;29;19933;-95
2021/03/12 13:44:00;;;;;;;;;;;19.30;52.50;;;;;;4912132;29;19985;-86
2021/03/12 13:46:27;;;;;;;;;;;19.40;52.80;;;;;;4910323;29;19931;-83
2021/03/12 13:48:58;;;;;;;;;;;19.40;52.40;;;;;;4915250;29;19911;-83
2021/03/12 13:51:24;;;;;;;;;;;19.30;52.50;;;;;;4890102;29;19931;-82
2021/03/12 13:53:50;;;;;;;;;;;19.30;52.20;;;;;;4892156;29;19932;-88
2021/03/12 13:56:17;;;;;;;;;;;19.30;53.30;;;;;;4893936;29;19927;-91
2021/03/12 13:58:45;;;;;;;;;;;20.10;51.50;;;;;;4893936;29;19943;-84
2021/03/12 14:01:12;;;;;;;;;;;20.90;49.50;;;;;;4884399;29;20400;-86
2021/03/12 14:03:38;;;;;;;;;;;21.40;48.30;;;;;;4892976;29;19927;-87
2021/03/12 14:06:05;;;;;;;;;;;21.80;47.50;;;;;;4902335;29;20864;-88
2021/03/12 14:08:31;;;;;;;;;;;22.10;46.60;;;;;;4893988;29;19943;-86
2021/03/12 14:10:57;;;;;;;;;;;22.30;46.30;;;;;;4892289;29;19927;-86
2021/03/12 14:13:23;;;;;;;;;;;22.60;45.90;;;;;;4893346;29;19934;-86
2021/03/12 14:15:55;;;;;;;;;;;22.70;45.50;;;;;;4889429;29;19931;-84
2021/03/12 14:18:21;;;;;;;;;;;23.00;45.20;;;;;;4885747;29;19928;-86
2021/03/12 14:20:48;;;;;;;;;;;23.00;44.90;;;;;;4887696;29;19943;-86
2021/03/12 14:23:17;;;;;;;;;;;23.20;44.70;;;;;;4887844;29;20368;-84
2021/03/12 14:25:43;;;;;;;;;;;23.20;44.50;;;;;;4891511;29;19927;-85
2021/03/12 14:28:12;;;;;;;;;;;23.30;44.40;;;;;;4888492;29;19935;-86
2021/03/12 14:30:38;;;;;;;;;;;23.40;44.10;;;;;;4908374;29;19983;-85